Okeanos Explorer — WTDH — position and weather

sailwx.info

Track history (hours):
 
Tides and Currents Weather Stations Pressure Air Temp Water Temp Dewpoint Dewpoint Depression Visibility Wind Speed Wind Dir Waves Ship Positions

Oceanographic research ship Okeanos Explorer (USA)

Ship's website: http://oceanexplorer.noaa.gov/okeanos/

Last reported at 2017-Nov-18 06:00 UTC. Time now 2017-Nov-18 09:56 UTC.
Position N 16°12' W 080°42'.

Length 69 m; draft 5 m.

Type: Other ship. MMSI: 369888000.

Wind from 020 at 15 knots

Barometer 1006.8 mb
Air temperature 28.2 ° C
Visibility: greater than 5.4 NM
Dewpoint 22.0 ° C
Water temperature 29.0 ° C

Date/timePositionNaut miles runAvg speedWind from/ knotsBaromVisibWave heightAir tempDewpointWater temp
2017-Nov-18 06:00N 16°12' W 080°42'3110.2 020 / 151006.8 5.4 28.222.029.0
2017-Nov-18 03:00N 15°42' W 080°36'3010.0 010 / 171006.210.8 29.023.2
2017-Nov-18 00:00N 15°12' W 080°36'85 9.4 360 / 181006.010.8 29.427.824.4
2017-Nov-17 15:00N 13°48' W 080°24'57 9.5 350 / 171008.0 5.4 29.022.4
2017-Nov-17 09:00N 12°54' W 080°06'3210.7 350 / 221004.9 5.4 28.623.7
2017-Nov-17 06:00N 12°24' W 079°54'2512.4 350 / 131005.5 5.4 28.825.1
2017-Nov-17 04:00N 12°00' W 079°48'57 8.1 340 / 211006.6 5.4 28.524.7
2017-Nov-16 21:00N 11°06' W 079°30'   280 / 281003.2 2.2 26.025.029.3
2017-Nov-11 16:00N 08°54' W 079°36'6 5.9 150 / 51009.5 20.4-26.428.1
2017-Nov-11 15:00N 08°54' W 079°30'0 0.0 210 / 21009.7 20.5 28.1
2017-Nov-11 14:00N 08°54' W 079°30'0 0.0 320 / 21009.8 20.7 28.1
2017-Nov-11 13:00N 08°54' W 079°30'0 0.0 330 / 21009.3 20.9 28.1
2017-Nov-11 12:00N 08°54' W 079°30'0 0.0 330 / 41009.0 20.8 28.1
2017-Nov-11 11:00N 08°54' W 079°30'0 0.0 310 / 61008.5 20.8 28.1
2017-Nov-11 10:00N 08°54' W 079°30'0 0.0 310 / 51007.8 20.8 28.1
2017-Nov-11 09:00N 08°54' W 079°30'0 0.0 320 / 41008.1 20.6 28.1
2017-Nov-11 08:00N 08°54' W 079°30'0 0.0 200 / 41008.3 20.3 28.1
2017-Nov-11 07:00N 08°54' W 079°30'0 0.0 320 / 81008.3 20.4 28.1
2017-Nov-11 06:00N 08°54' W 079°30'0 0.0 300 / 71008.7 20.6 28.1
2017-Nov-11 05:00N 08°54' W 079°30'0 0.0 310 / 51009.2 20.6 28.1
2017-Nov-11 04:00N 08°54' W 079°30'0 0.0 320 / 61009.6 20.5 28.1
2017-Nov-11 03:00N 08°54' W 079°30'0 0.0 310 / 71009.6 20.7 28.1
2017-Nov-11 02:00N 08°54' W 079°30'0 0.0 330 / 71009.2 20.5 28.1
2017-Nov-11 01:00N 08°54' W 079°30'0 0.0 320 / 121008.1 20.6 28.1
2017-Nov-11 00:00N 08°54' W 079°30'0 0.0 320 / 91007.9 20.5 28.1
2017-Nov-10 23:00N 08°54' W 079°30'1313.4 300 / 71007.4 20.7 28.4
2017-Nov-10 22:00N 08°42' W 079°24'8 8.4 280 / 121006.9 20.5 28.4
2017-Nov-10 21:00N 08°36' W 079°18'1212.0 290 / 151007.2 20.6 28.4
2017-Nov-10 20:00N 08°24' W 079°18'1212.0 230 / 71007.7 20.6 28.4
2017-Nov-10 19:00N 08°12' W 079°18'6 6.0 200 / 51008.3 20.7 27.9
2017-Nov-10 18:00N 08°06' W 079°18'1212.0 130 / 101009.2 20.8 27.8
2017-Nov-10 17:00N 07°54' W 079°18'6 6.0 090 / 101009.8 20.8 27.8
2017-Nov-10 16:00N 07°48' W 079°18'8 8.4 140 / 51010.5 20.8 27.9
2017-Nov-10 15:00N 07°42' W 079°12'8 8.4 200 / 51011.0 21.0 27.9
2017-Nov-10 14:00N 07°36' W 079°06'6 5.9 290 / 31010.6 20.9 27.8
2017-Nov-10 13:00N 07°36' W 079°00'1211.9 350 / 101010.3 20.6 27.7
2017-Nov-10 12:00N 07°36' W 078°48'6 5.9 050 / 61009.9 20.6 27.4
2017-Nov-10 11:00N 07°36' W 078°42'6 5.9 010 / 111009.4 20.4 27.3
2017-Nov-10 10:00N 07°36' W 078°36'8 8.4 190 / 41009.1 20.4 27.0
2017-Nov-10 09:00N 07°30' W 078°30'8 8.4 190 / 31008.7 20.5 27.3
2017-Nov-10 08:00N 07°24' W 078°24'0 0.0 250 / 51008.8 20.5 27.3
2017-Nov-10 07:00N 07°24' W 078°24'8 8.4 240 / 71009.1 20.7 27.4
2017-Nov-10 06:00N 07°30' W 078°30'6 5.9 210 / 51009.6 20.4 27.5
2017-Nov-10 05:00N 07°30' W 078°36'1313.3 200 / 81009.9 20.7 27.5
2017-Nov-10 04:00N 07°36' W 078°48'6 5.9 220 / 91010.1 20.8 27.8
2017-Nov-10 03:00N 07°36' W 078°54'1211.9 210 / 101010.1 20.8 28.0
2017-Nov-10 02:00N 07°36' W 079°06'6 5.9 210 / 81009.7 20.8 28.0
2017-Nov-10 01:00N 07°36' W 079°12'1313.3 230 / 81009.3 20.8 27.8
2017-Nov-10 00:00N 07°30' W 079°24'8 8.4 250 / 71008.7 20.8 28.2
2017-Nov-09 23:00N 07°24' W 079°30'8 8.4 240 / 71008.4 20.8 27.7
2017-Nov-09 22:00N 07°30' W 079°24'6 5.9 220 / 51008.4 20.8 27.9
2017-Nov-09 21:00N 07°30' W 079°18'1211.9 190 / 71008.2 20.6 28.2
2017-Nov-09 20:00N 07°30' W 079°06'6 5.9 220 / 51008.5 20.6 28.1
2017-Nov-09 19:00N 07°30' W 079°00'1211.9 060 / 21009.2 20.8 28.0
2017-Nov-09 18:00N 07°30' W 078°48'6 5.9 140 / 51010.0 21.0 27.8
2017-Nov-09 17:00N 07°30' W 078°42'62 7.8 030 / 51010.3 20.8 27.6
2017-Nov-09 09:00N 07°12' W 079°42'1313.3 200 / 271008.2 20.5 28.3
2017-Nov-09 08:00N 07°06' W 079°54'8 8.5 260 / 291008.3 20.4 28.1
2017-Nov-09 07:00N 07°00' W 080°00'8 8.5 210 / 541008.7 20.7 28.0
2017-Nov-09 06:00N 06°54' W 080°06'1313.3 230 / 181009.2 20.5 28.0
2017-Nov-09 05:00N 06°48' W 080°18'6 6.0 210 / 251009.9 20.5 27.9
2017-Nov-09 04:00N 06°48' W 080°24'2411.9 210 / 291010.0 5.4 20.625.027.8
2017-Nov-09 02:00N 06°48' W 080°48'6 6.0 190 / 681009.9 20.7 27.9
2017-Nov-09 01:00N 06°48' W 080°54'1211.9 190 / 261009.4 20.6 27.9
2017-Nov-09 00:00N 06°48' W 081°06'1211.9 270 / 511008.6 20.5 27.9
2017-Nov-08 23:00N 06°48' W 081°18'6 6.0 270 / 511008.3 20.5 27.9
2017-Nov-08 22:00N 06°48' W 081°24'8 8.5 170 / 721008.2 20.6 28.0
2017-Nov-08 21:00N 06°42' W 081°30'0 0.0 220 / 341007.8 20.7 28.0
2017-Nov-08 20:00N 06°42' W 081°30'6 6.0 230 / 131008.2 20.5 27.9
2017-Nov-08 19:00N 06°48' W 081°30'6 6.0 230 / 121008.8 20.7 27.9
2017-Nov-08 18:00N 06°48' W 081°36'6 6.0 230 / 121009.5 20.4 27.7
2017-Nov-08 17:00N 06°48' W 081°42'1211.9 190 / 101010.2 20.6 28.0
2017-Nov-08 16:00N 06°48' W 081°54'1313.3 240 / 111010.5 20.6 28.0
2017-Nov-08 15:00N 06°54' W 082°06'6 6.0 260 / 121010.5 20.4 27.9
2017-Nov-08 14:00N 06°54' W 082°12'3812.6 260 / 101010.1 20.5 27.8
2017-Nov-08 11:00N 07°06' W 082°48'6 6.0 210 / 121008.3 20.6 27.8
2017-Nov-08 10:00N 07°06' W 082°54'1313.3 250 / 151007.9 20.4 27.9
2017-Nov-08 09:00N 07°12' W 083°06'1211.9 260 / 141007.8 20.4 27.9
2017-Nov-08 08:00N 07°12' W 083°18'6 6.0 240 / 141007.8 20.5 27.8
2017-Nov-08 07:00N 07°12' W 083°24'1313.3 240 / 151008.7 20.6 27.7
2017-Nov-08 06:00N 07°18' W 083°36'   240 / 141009.5 20.4 27.7
Track history (hours):
 
Tides and Currents Weather Stations Pressure Air Temp Water Temp Dewpoint Dewpoint Depression Visibility Wind Speed Wind Dir Waves Ship Positions

Oceanographic research ship Okeanos Explorer (USA)

Ship's website: http://oceanexplorer.noaa.gov/okeanos/

Last reported at 2017-Nov-18 06:00 UTC. Time now 2017-Nov-18 09:56 UTC.
Position N 16°12' W 080°42'.

Length 69 m; draft 5 m.

Type: Other ship. MMSI: 369888000.

Wind from 020 at 15 knots

Barometer 1006.8 mb
Air temperature 28.2 ° C
Visibility: greater than 5.4 NM
Dewpoint 22.0 ° C
Water temperature 29.0 ° C

Date/timePositionNaut miles runAvg speedWind from/ knotsBaromVisibWave heightAir tempDewpointWater temp
2017-Nov-18 06:00N 16°12' W 080°42'3110.2 020 / 151006.8 5.4 28.222.029.0
2017-Nov-18 03:00N 15°42' W 080°36'3010.0 010 / 171006.210.8 29.023.2
2017-Nov-18 00:00N 15°12' W 080°36'85 9.4 360 / 181006.010.8 29.427.824.4
2017-Nov-17 15:00N 13°48' W 080°24'57 9.5 350 / 171008.0 5.4 29.022.4
2017-Nov-17 09:00N 12°54' W 080°06'3210.7 350 / 221004.9 5.4 28.623.7
2017-Nov-17 06:00N 12°24' W 079°54'2512.4 350 / 131005.5 5.4 28.825.1
2017-Nov-17 04:00N 12°00' W 079°48'57 8.1 340 / 211006.6 5.4 28.524.7
2017-Nov-16 21:00N 11°06' W 079°30'   280 / 281003.2 2.2 26.025.029.3
2017-Nov-11 16:00N 08°54' W 079°36'6 5.9 150 / 51009.5 20.4-26.428.1
2017-Nov-11 15:00N 08°54' W 079°30'0 0.0 210 / 21009.7 20.5 28.1
2017-Nov-11 14:00N 08°54' W 079°30'0 0.0 320 / 21009.8 20.7 28.1
2017-Nov-11 13:00N 08°54' W 079°30'0 0.0 330 / 21009.3 20.9 28.1
2017-Nov-11 12:00N 08°54' W 079°30'0 0.0 330 / 41009.0 20.8 28.1
2017-Nov-11 11:00N 08°54' W 079°30'0 0.0 310 / 61008.5 20.8 28.1
2017-Nov-11 10:00N 08°54' W 079°30'0 0.0 310 / 51007.8 20.8 28.1
2017-Nov-11 09:00N 08°54' W 079°30'0 0.0 320 / 41008.1 20.6 28.1
2017-Nov-11 08:00N 08°54' W 079°30'0 0.0 200 / 41008.3 20.3 28.1
2017-Nov-11 07:00N 08°54' W 079°30'0 0.0 320 / 81008.3 20.4 28.1
2017-Nov-11 06:00N 08°54' W 079°30'0 0.0 300 / 71008.7 20.6 28.1
2017-Nov-11 05:00N 08°54' W 079°30'0 0.0 310 / 51009.2 20.6 28.1
2017-Nov-11 04:00N 08°54' W 079°30'0 0.0 320 / 61009.6 20.5 28.1
2017-Nov-11 03:00N 08°54' W 079°30'0 0.0 310 / 71009.6 20.7 28.1
2017-Nov-11 02:00N 08°54' W 079°30'0 0.0 330 / 71009.2 20.5 28.1
2017-Nov-11 01:00N 08°54' W 079°30'0 0.0 320 / 121008.1 20.6 28.1
2017-Nov-11 00:00N 08°54' W 079°30'0 0.0 320 / 91007.9 20.5 28.1
2017-Nov-10 23:00N 08°54' W 079°30'1313.4 300 / 71007.4 20.7 28.4
2017-Nov-10 22:00N 08°42' W 079°24'8 8.4 280 / 121006.9 20.5 28.4
2017-Nov-10 21:00N 08°36' W 079°18'1212.0 290 / 151007.2 20.6 28.4
2017-Nov-10 20:00N 08°24' W 079°18'1212.0 230 / 71007.7 20.6 28.4
2017-Nov-10 19:00N 08°12' W 079°18'6 6.0 200 / 51008.3 20.7 27.9
2017-Nov-10 18:00N 08°06' W 079°18'1212.0 130 / 101009.2 20.8 27.8
2017-Nov-10 17:00N 07°54' W 079°18'6 6.0 090 / 101009.8 20.8 27.8
2017-Nov-10 16:00N 07°48' W 079°18'8 8.4 140 / 51010.5 20.8 27.9
2017-Nov-10 15:00N 07°42' W 079°12'8 8.4 200 / 51011.0 21.0 27.9
2017-Nov-10 14:00N 07°36' W 079°06'6 5.9 290 / 31010.6 20.9 27.8
2017-Nov-10 13:00N 07°36' W 079°00'1211.9 350 / 101010.3 20.6 27.7
2017-Nov-10 12:00N 07°36' W 078°48'6 5.9 050 / 61009.9 20.6 27.4
2017-Nov-10 11:00N 07°36' W 078°42'6 5.9 010 / 111009.4 20.4 27.3
2017-Nov-10 10:00N 07°36' W 078°36'8 8.4 190 / 41009.1 20.4 27.0
2017-Nov-10 09:00N 07°30' W 078°30'8 8.4 190 / 31008.7 20.5 27.3
2017-Nov-10 08:00N 07°24' W 078°24'0 0.0 250 / 51008.8 20.5 27.3
2017-Nov-10 07:00N 07°24' W 078°24'8 8.4 240 / 71009.1 20.7 27.4
2017-Nov-10 06:00N 07°30' W 078°30'6 5.9 210 / 51009.6 20.4 27.5
2017-Nov-10 05:00N 07°30' W 078°36'1313.3 200 / 81009.9 20.7 27.5
2017-Nov-10 04:00N 07°36' W 078°48'6 5.9 220 / 91010.1 20.8 27.8
2017-Nov-10 03:00N 07°36' W 078°54'1211.9 210 / 101010.1 20.8 28.0
2017-Nov-10 02:00N 07°36' W 079°06'6 5.9 210 / 81009.7 20.8 28.0
2017-Nov-10 01:00N 07°36' W 079°12'1313.3 230 / 81009.3 20.8 27.8
2017-Nov-10 00:00N 07°30' W 079°24'8 8.4 250 / 71008.7 20.8 28.2
2017-Nov-09 23:00N 07°24' W 079°30'8 8.4 240 / 71008.4 20.8 27.7
2017-Nov-09 22:00N 07°30' W 079°24'6 5.9 220 / 51008.4 20.8 27.9
2017-Nov-09 21:00N 07°30' W 079°18'1211.9 190 / 71008.2 20.6 28.2
2017-Nov-09 20:00N 07°30' W 079°06'6 5.9 220 / 51008.5 20.6 28.1
2017-Nov-09 19:00N 07°30' W 079°00'1211.9 060 / 21009.2 20.8 28.0
2017-Nov-09 18:00N 07°30' W 078°48'6 5.9 140 / 51010.0 21.0 27.8
2017-Nov-09 17:00N 07°30' W 078°42'62 7.8 030 / 51010.3 20.8 27.6
2017-Nov-09 09:00N 07°12' W 079°42'1313.3 200 / 271008.2 20.5 28.3
2017-Nov-09 08:00N 07°06' W 079°54'8 8.5 260 / 291008.3 20.4 28.1
2017-Nov-09 07:00N 07°00' W 080°00'8 8.5 210 / 541008.7 20.7 28.0
2017-Nov-09 06:00N 06°54' W 080°06'1313.3 230 / 181009.2 20.5 28.0
2017-Nov-09 05:00N 06°48' W 080°18'6 6.0 210 / 251009.9 20.5 27.9
2017-Nov-09 04:00N 06°48' W 080°24'2411.9 210 / 291010.0 5.4 20.625.027.8
2017-Nov-09 02:00N 06°48' W 080°48'6 6.0 190 / 681009.9 20.7 27.9
2017-Nov-09 01:00N 06°48' W 080°54'1211.9 190 / 261009.4 20.6 27.9
2017-Nov-09 00:00N 06°48' W 081°06'1211.9 270 / 511008.6 20.5 27.9
2017-Nov-08 23:00N 06°48' W 081°18'6 6.0 270 / 511008.3 20.5 27.9
2017-Nov-08 22:00N 06°48' W 081°24'8 8.5 170 / 721008.2 20.6 28.0
2017-Nov-08 21:00N 06°42' W 081°30'0 0.0 220 / 341007.8 20.7 28.0
2017-Nov-08 20:00N 06°42' W 081°30'6 6.0 230 / 131008.2 20.5 27.9
2017-Nov-08 19:00N 06°48' W 081°30'6 6.0 230 / 121008.8 20.7 27.9
2017-Nov-08 18:00N 06°48' W 081°36'6 6.0 230 / 121009.5 20.4 27.7
2017-Nov-08 17:00N 06°48' W 081°42'1211.9 190 / 101010.2 20.6 28.0
2017-Nov-08 16:00N 06°48' W 081°54'1313.3 240 / 111010.5 20.6 28.0
2017-Nov-08 15:00N 06°54' W 082°06'6 6.0 260 / 121010.5 20.4 27.9
2017-Nov-08 14:00N 06°54' W 082°12'3812.6 260 / 101010.1 20.5 27.8
2017-Nov-08 11:00N 07°06' W 082°48'6 6.0 210 / 121008.3 20.6 27.8
2017-Nov-08 10:00N 07°06' W 082°54'1313.3 250 / 151007.9 20.4 27.9
2017-Nov-08 09:00N 07°12' W 083°06'1211.9 260 / 141007.8 20.4 27.9
2017-Nov-08 08:00N 07°12' W 083°18'6 6.0 240 / 141007.8 20.5 27.8
2017-Nov-08 07:00N 07°12' W 083°24'1313.3 240 / 151008.7 20.6 27.7
2017-Nov-08 06:00N 07°18' W 083°36'   240 / 141009.5 20.4 27.7

Dump ship's entire track history